DLH273 LOWI-EDDF
Flight info
| Callsign | DLH273 |
|---|---|
| Flight time | 0h 43m |
| Altitude | 36000 |
| Route | KOGOL M726 ERNAS T161 DEBHI DEBHI1B |
| Aircraft | A319/M-SDE3FGHIRWY/LB1 |
Departure
| Time | 2026-05-07 12:21 |
|---|---|
| Airport | Innsbruck Airport (LOWI) |
Arrival
| Time | 2026-05-07 13:05 |
|---|---|
| Airport | Frankfurt Main Airport (EDDF) |
| Time | Latitude | Longitude | Altitude | Speed | Heading |
|---|---|---|---|---|---|
| 2026-05-07 11:50 | 47.25826 | 11.35111 | 1908 ft | 0 kts | 171° |
| 2026-05-07 12:11 | 47.25844 | 11.35107 | 1894 ft | 4 kts | 171° |
| 2026-05-07 12:12 | 47.25866 | 11.35101 | 1893 ft | 4 kts | 173° |
| 2026-05-07 12:12 | 47.25885 | 11.35112 | 1905 ft | 4 kts | 256° |
| 2026-05-07 12:12 | 47.25889 | 11.35145 | 1901 ft | 1 kts | 261° |
| 2026-05-07 12:12 | 47.25889 | 11.35146 | 1901 ft | 0 kts | 261° |
| 2026-05-07 12:16 | 47.25888 | 11.35138 | 1903 ft | 2 kts | 261° |
| 2026-05-07 12:17 | 47.25884 | 11.35097 | 1903 ft | 6 kts | 261° |
| 2026-05-07 12:17 | 47.25876 | 11.35025 | 1901 ft | 8 kts | 261° |
| 2026-05-07 12:17 | 47.25866 | 11.34928 | 1908 ft | 10 kts | 261° |
| 2026-05-07 12:17 | 47.25858 | 11.34857 | 1908 ft | 11 kts | 261° |
| 2026-05-07 12:18 | 47.25844 | 11.34734 | 1901 ft | 15 kts | 261° |
| 2026-05-07 12:18 | 47.25825 | 11.34558 | 1911 ft | 20 kts | 261° |
| 2026-05-07 12:18 | 47.25800 | 11.34333 | 1913 ft | 24 kts | 261° |
| 2026-05-07 12:18 | 47.25774 | 11.34099 | 1910 ft | 22 kts | 261° |
| 2026-05-07 12:19 | 47.25780 | 11.33952 | 1916 ft | 11 kts | 289° |
| 2026-05-07 12:19 | 47.25816 | 11.33866 | 1917 ft | 10 kts | 305° |
| 2026-05-07 12:19 | 47.25864 | 11.33769 | 1918 ft | 15 kts | 306° |
| 2026-05-07 12:19 | 47.25933 | 11.33617 | 1918 ft | 21 kts | 287° |
| 2026-05-07 12:20 | 47.25912 | 11.33385 | 1918 ft | 22 kts | 259° |
| 2026-05-07 12:20 | 47.25861 | 11.33209 | 1919 ft | 13 kts | 213° |
| 2026-05-07 12:20 | 47.25837 | 11.33113 | 1921 ft | 9 kts | 268° |
| 2026-05-07 12:20 | 47.25873 | 11.33076 | 1922 ft | 7 kts | 19° |
| 2026-05-07 12:21 | 47.25896 | 11.33242 | 1919 ft | 43 kts | 81° |
| 2026-05-07 12:21 | 47.25984 | 11.34046 | 1906 ft | 115 kts | 81° |
| 2026-05-07 12:21 | 47.26144 | 11.35481 | 2046 ft | 157 kts | 80° |
| 2026-05-07 12:21 | 47.26286 | 11.37064 | 2734 ft | 156 kts | 82° |
| 2026-05-07 12:22 | 47.26417 | 11.38661 | 3375 ft | 163 kts | 81° |
| 2026-05-07 12:22 | 47.26596 | 11.40399 | 3866 ft | 176 kts | 80° |
| 2026-05-07 12:22 | 47.26782 | 11.42153 | 4635 ft | 171 kts | 80° |
| 2026-05-07 12:22 | 47.26968 | 11.43884 | 5247 ft | 172 kts | 79° |
| 2026-05-07 12:23 | 47.27340 | 11.45559 | 5855 ft | 174 kts | 68° |
| 2026-05-07 12:23 | 47.27780 | 11.47230 | 6451 ft | 175 kts | 67° |
| 2026-05-07 12:23 | 47.28250 | 11.48897 | 6996 ft | 177 kts | 66° |
| 2026-05-07 12:23 | 47.28738 | 11.50595 | 7506 ft | 181 kts | 66° |
| 2026-05-07 12:24 | 47.29228 | 11.52305 | 8067 ft | 182 kts | 66° |
| 2026-05-07 12:24 | 47.29724 | 11.54043 | 8585 ft | 185 kts | 66° |
| 2026-05-07 12:24 | 47.30227 | 11.55803 | 9101 ft | 189 kts | 66° |
| 2026-05-07 12:24 | 47.30760 | 11.57676 | 9331 ft | 209 kts | 66° |
| 2026-05-07 12:25 | 47.31355 | 11.59764 | 9493 ft | 237 kts | 66° |
| 2026-05-07 12:25 | 47.32044 | 11.62175 | 9523 ft | 275 kts | 66° |
| 2026-05-07 12:25 | 47.32821 | 11.64868 | 9522 ft | 292 kts | 66° |
| 2026-05-07 12:25 | 47.33619 | 11.67635 | 9518 ft | 295 kts | 66° |
| 2026-05-07 12:26 | 47.34424 | 11.70420 | 9524 ft | 296 kts | 66° |
| 2026-05-07 12:26 | 47.35230 | 11.73213 | 9524 ft | 296 kts | 66° |
| 2026-05-07 12:26 | 47.36091 | 11.75985 | 9636 ft | 301 kts | 57° |
| 2026-05-07 12:26 | 47.37519 | 11.78256 | 10413 ft | 306 kts | 34° |
| 2026-05-07 12:27 | 47.39445 | 11.79576 | 11237 ft | 307 kts | 10° |
| 2026-05-07 12:27 | 47.41566 | 11.79647 | 12073 ft | 307 kts | 346° |
| 2026-05-07 12:27 | 47.43523 | 11.78450 | 12861 ft | 306 kts | 322° |
| 2026-05-07 12:27 | 47.45040 | 11.76178 | 13259 ft | 322 kts | 303° |
| 2026-05-07 12:28 | 47.46369 | 11.73372 | 13498 ft | 343 kts | 302° |
| 2026-05-07 12:28 | 47.47749 | 11.70426 | 14043 ft | 353 kts | 303° |
| 2026-05-07 12:28 | 47.49143 | 11.67472 | 14638 ft | 357 kts | 303° |
| 2026-05-07 12:28 | 47.50576 | 11.64459 | 15327 ft | 360 kts | 303° |
| 2026-05-07 12:29 | 47.52032 | 11.61412 | 16047 ft | 363 kts | 303° |
| 2026-05-07 12:29 | 47.53500 | 11.58347 | 16764 ft | 366 kts | 303° |
| 2026-05-07 12:29 | 47.54978 | 11.55251 | 17488 ft | 370 kts | 303° |
| 2026-05-07 12:29 | 47.56467 | 11.52118 | 18199 ft | 373 kts | 303° |
| 2026-05-07 12:30 | 47.57967 | 11.48960 | 18808 ft | 377 kts | 303° |
| 2026-05-07 12:30 | 47.59527 | 11.45823 | 19393 ft | 381 kts | 309° |
| 2026-05-07 12:30 | 47.61460 | 11.43100 | 19982 ft | 387 kts | 321° |
| 2026-05-07 12:30 | 47.63771 | 11.40992 | 20576 ft | 393 kts | 333° |
| 2026-05-07 12:31 | 47.66368 | 11.39625 | 21154 ft | 399 kts | 345° |
| 2026-05-07 12:31 | 47.69136 | 11.39042 | 21737 ft | 404 kts | 353° |
| 2026-05-07 12:31 | 47.71951 | 11.38666 | 22306 ft | 407 kts | 353° |
| 2026-05-07 12:31 | 47.74783 | 11.38284 | 22879 ft | 410 kts | 353° |
| 2026-05-07 12:32 | 47.77598 | 11.37901 | 23425 ft | 413 kts | 353° |
| 2026-05-07 12:32 | 47.80470 | 11.37508 | 23897 ft | 416 kts | 353° |
| 2026-05-07 12:32 | 47.83369 | 11.37109 | 24334 ft | 418 kts | 353° |
| 2026-05-07 12:32 | 47.86277 | 11.36712 | 24780 ft | 421 kts | 353° |
| 2026-05-07 12:33 | 47.92167 | 11.36132 | 25658 ft | 426 kts | 355° |
| 2026-05-07 12:33 | 47.95146 | 11.35916 | 26096 ft | 429 kts | 355° |
| 2026-05-07 12:33 | 47.98134 | 11.35710 | 26533 ft | 431 kts | 355° |
| 2026-05-07 12:34 | 48.01139 | 11.35488 | 26962 ft | 433 kts | 355° |
| 2026-05-07 12:34 | 48.04159 | 11.35243 | 27383 ft | 436 kts | 355° |
| 2026-05-07 12:34 | 48.07196 | 11.34969 | 27795 ft | 437 kts | 354° |
| 2026-05-07 12:34 | 48.10233 | 11.34545 | 28200 ft | 439 kts | 352° |
| 2026-05-07 12:35 | 48.13269 | 11.33975 | 28587 ft | 441 kts | 350° |
| 2026-05-07 12:35 | 48.16322 | 11.33323 | 28982 ft | 443 kts | 349° |
| 2026-05-07 12:35 | 48.19334 | 11.32655 | 29351 ft | 445 kts | 349° |
| 2026-05-07 12:35 | 48.22403 | 11.31986 | 29725 ft | 447 kts | 350° |
| 2026-05-07 12:36 | 48.25503 | 11.31337 | 30084 ft | 449 kts | 350° |
| 2026-05-07 12:36 | 48.28611 | 11.30737 | 30387 ft | 451 kts | 351° |
| 2026-05-07 12:36 | 48.31734 | 11.30223 | 30764 ft | 451 kts | 352° |
| 2026-05-07 12:36 | 48.34871 | 11.29761 | 31101 ft | 452 kts | 353° |
| 2026-05-07 12:37 | 48.38009 | 11.29312 | 31432 ft | 453 kts | 352° |
| 2026-05-07 12:37 | 48.41156 | 11.28853 | 31762 ft | 455 kts | 352° |
| 2026-05-07 12:37 | 48.44306 | 11.28379 | 32096 ft | 455 kts | 352° |
| 2026-05-07 12:37 | 48.47462 | 11.27885 | 32423 ft | 456 kts | 352° |
| 2026-05-07 12:38 | 48.50634 | 11.27372 | 32764 ft | 457 kts | 352° |
| 2026-05-07 12:38 | 48.53764 | 11.26865 | 33086 ft | 459 kts | 352° |
| 2026-05-07 12:38 | 48.56944 | 11.26349 | 33431 ft | 459 kts | 351° |
| 2026-05-07 12:38 | 48.60169 | 11.25827 | 33757 ft | 461 kts | 351° |
| 2026-05-07 12:39 | 48.63319 | 11.25320 | 34068 ft | 462 kts | 351° |
| 2026-05-07 12:39 | 48.66517 | 11.24810 | 34343 ft | 462 kts | 352° |
| 2026-05-07 12:39 | 48.69720 | 11.24301 | 34638 ft | 463 kts | 352° |
| 2026-05-07 12:39 | 48.72923 | 11.23794 | 34924 ft | 463 kts | 352° |
| 2026-05-07 12:40 | 48.76134 | 11.23281 | 35208 ft | 463 kts | 352° |
| 2026-05-07 12:40 | 48.79335 | 11.22695 | 35475 ft | 462 kts | 347° |
| 2026-05-07 12:40 | 48.82431 | 11.21464 | 35730 ft | 459 kts | 337° |
| 2026-05-07 12:40 | 48.85338 | 11.19498 | 35985 ft | 455 kts | 328° |
| 2026-05-07 12:41 | 48.87986 | 11.16879 | 36249 ft | 452 kts | 319° |
| 2026-05-07 12:41 | 48.90350 | 11.13744 | 36496 ft | 451 kts | 315° |
| 2026-05-07 12:41 | 48.92664 | 11.10521 | 36746 ft | 451 kts | 315° |
| 2026-05-07 12:41 | 48.94985 | 11.07291 | 36889 ft | 452 kts | 315° |
| 2026-05-07 12:42 | 48.99583 | 11.00878 | 36894 ft | 451 kts | 315° |
| 2026-05-07 12:42 | 49.04200 | 10.94395 | 36879 ft | 450 kts | 315° |
| 2026-05-07 12:43 | 49.06501 | 10.91157 | 36360 ft | 449 kts | 315° |
| 2026-05-07 12:43 | 49.08797 | 10.87917 | 35582 ft | 451 kts | 315° |
| 2026-05-07 12:43 | 49.11121 | 10.84628 | 34639 ft | 458 kts | 315° |
| 2026-05-07 12:43 | 49.13468 | 10.81305 | 33841 ft | 460 kts | 315° |
| 2026-05-07 12:44 | 49.15815 | 10.77974 | 32993 ft | 460 kts | 315° |
| 2026-05-07 12:44 | 49.18126 | 10.74694 | 32183 ft | 458 kts | 316° |
| 2026-05-07 12:44 | 49.20447 | 10.71378 | 31375 ft | 456 kts | 315° |
| 2026-05-07 12:44 | 49.22705 | 10.67993 | 30552 ft | 453 kts | 314° |
| 2026-05-07 12:45 | 49.24904 | 10.64544 | 29640 ft | 451 kts | 313° |
| 2026-05-07 12:45 | 49.27067 | 10.61059 | 28552 ft | 451 kts | 313° |
| 2026-05-07 12:45 | 49.29207 | 10.57579 | 27552 ft | 448 kts | 313° |
| 2026-05-07 12:45 | 49.31349 | 10.54110 | 26538 ft | 447 kts | 313° |
| 2026-05-07 12:46 | 49.33495 | 10.50668 | 25670 ft | 443 kts | 313° |
| 2026-05-07 12:46 | 49.35611 | 10.47267 | 24841 ft | 438 kts | 311° |
| 2026-05-07 12:46 | 49.37436 | 10.43624 | 24043 ft | 434 kts | 305° |
| 2026-05-07 12:46 | 49.39166 | 10.39857 | 23225 ft | 430 kts | 305° |
| 2026-05-07 12:47 | 49.40866 | 10.36149 | 22769 ft | 417 kts | 305° |
| 2026-05-07 12:47 | 49.42517 | 10.32551 | 22356 ft | 407 kts | 305° |
| 2026-05-07 12:47 | 49.44131 | 10.29024 | 21941 ft | 401 kts | 304° |
| 2026-05-07 12:47 | 49.45729 | 10.25515 | 21534 ft | 398 kts | 304° |
| 2026-05-07 12:48 | 49.47313 | 10.22024 | 21130 ft | 396 kts | 304° |
| 2026-05-07 12:48 | 49.48883 | 10.18556 | 20727 ft | 394 kts | 304° |
| 2026-05-07 12:48 | 49.50442 | 10.15098 | 20330 ft | 392 kts | 304° |
| 2026-05-07 12:48 | 49.51992 | 10.11652 | 19927 ft | 390 kts | 304° |
| 2026-05-07 12:49 | 49.53536 | 10.08225 | 19529 ft | 389 kts | 304° |
| 2026-05-07 12:49 | 49.55075 | 10.04814 | 19135 ft | 387 kts | 304° |
| 2026-05-07 12:49 | 49.56590 | 10.01460 | 18742 ft | 385 kts | 304° |
| 2026-05-07 12:49 | 49.58114 | 9.98090 | 18350 ft | 383 kts | 304° |
| 2026-05-07 12:50 | 49.59631 | 9.94728 | 17931 ft | 381 kts | 304° |
| 2026-05-07 12:50 | 49.61135 | 9.91377 | 17545 ft | 379 kts | 304° |
| 2026-05-07 12:50 | 49.62632 | 9.88030 | 17159 ft | 377 kts | 304° |
| 2026-05-07 12:50 | 49.64115 | 9.84711 | 16768 ft | 375 kts | 304° |
| 2026-05-07 12:51 | 49.65589 | 9.81406 | 16395 ft | 373 kts | 304° |
| 2026-05-07 12:51 | 49.67054 | 9.78121 | 16017 ft | 371 kts | 304° |
| 2026-05-07 12:51 | 49.68516 | 9.74849 | 15640 ft | 369 kts | 304° |
| 2026-05-07 12:51 | 49.69969 | 9.71598 | 15263 ft | 366 kts | 304° |
| 2026-05-07 12:52 | 49.71389 | 9.68412 | 15073 ft | 355 kts | 304° |
| 2026-05-07 12:52 | 49.72843 | 9.65141 | 14524 ft | 380 kts | 303° |
| 2026-05-07 12:52 | 49.74353 | 9.61736 | 14124 ft | 381 kts | 303° |
| 2026-05-07 12:52 | 49.75843 | 9.58372 | 13736 ft | 378 kts | 303° |
| 2026-05-07 12:53 | 49.77323 | 9.55032 | 13330 ft | 375 kts | 304° |
| 2026-05-07 12:53 | 49.78797 | 9.51708 | 12950 ft | 373 kts | 304° |
| 2026-05-07 12:53 | 49.80261 | 9.48399 | 12571 ft | 371 kts | 304° |
| 2026-05-07 12:53 | 49.81691 | 9.45154 | 12198 ft | 368 kts | 304° |
| 2026-05-07 12:54 | 49.83135 | 9.41870 | 11824 ft | 366 kts | 304° |
| 2026-05-07 12:54 | 49.84566 | 9.38612 | 11452 ft | 364 kts | 304° |
| 2026-05-07 12:54 | 49.85987 | 9.35381 | 11085 ft | 362 kts | 304° |
| 2026-05-07 12:54 | 49.87425 | 9.32175 | 10629 ft | 359 kts | 305° |
| 2026-05-07 12:55 | 49.88883 | 9.29055 | 10157 ft | 356 kts | 306° |
| 2026-05-07 12:55 | 49.90336 | 9.26006 | 9737 ft | 341 kts | 306° |
| 2026-05-07 12:55 | 49.91693 | 9.23173 | 9591 ft | 313 kts | 306° |
| 2026-05-07 12:55 | 49.92937 | 9.20564 | 9443 ft | 289 kts | 306° |
| 2026-05-07 12:56 | 49.94114 | 9.18161 | 9018 ft | 278 kts | 311° |
| 2026-05-07 12:56 | 49.95560 | 9.16215 | 8436 ft | 274 kts | 327° |
| 2026-05-07 12:56 | 49.97268 | 9.14944 | 7833 ft | 271 kts | 340° |
| 2026-05-07 12:56 | 49.99037 | 9.13964 | 7394 ft | 268 kts | 339° |
| 2026-05-07 12:57 | 50.00788 | 9.12986 | 7030 ft | 266 kts | 339° |
| 2026-05-07 12:57 | 50.02521 | 9.12006 | 6674 ft | 264 kts | 339° |
| 2026-05-07 12:57 | 50.04243 | 9.11029 | 6319 ft | 262 kts | 339° |
| 2026-05-07 12:57 | 50.05954 | 9.10057 | 5955 ft | 261 kts | 339° |
| 2026-05-07 12:58 | 50.07662 | 9.09086 | 5603 ft | 260 kts | 339° |
| 2026-05-07 12:58 | 50.09240 | 9.07822 | 5258 ft | 259 kts | 323° |
| 2026-05-07 12:58 | 50.10450 | 9.05858 | 4902 ft | 255 kts | 304° |
| 2026-05-07 12:59 | 50.11210 | 9.03376 | 4476 ft | 256 kts | 287° |
| 2026-05-07 12:59 | 50.11545 | 9.00665 | 4236 ft | 253 kts | 281° |
| 2026-05-07 12:59 | 50.11746 | 8.98859 | 4194 ft | 255 kts | 281° |
| 2026-05-07 12:59 | 50.12052 | 8.96128 | 4076 ft | 255 kts | 281° |
| 2026-05-07 13:00 | 50.12148 | 8.93368 | 4006 ft | 256 kts | 262° |
| 2026-05-07 13:00 | 50.11631 | 8.90696 | 4018 ft | 259 kts | 250° |
| 2026-05-07 13:00 | 50.10994 | 8.88157 | 4014 ft | 242 kts | 250° |
| 2026-05-07 13:00 | 50.10422 | 8.85788 | 3978 ft | 227 kts | 252° |
| 2026-05-07 13:01 | 50.09886 | 8.83508 | 3747 ft | 222 kts | 252° |
| 2026-05-07 13:01 | 50.09364 | 8.81286 | 3471 ft | 220 kts | 252° |
| 2026-05-07 13:01 | 50.08837 | 8.79049 | 3174 ft | 220 kts | 251° |
| 2026-05-07 13:01 | 50.08314 | 8.76835 | 2875 ft | 215 kts | 252° |
| 2026-05-07 13:02 | 50.07805 | 8.74682 | 2584 ft | 209 kts | 252° |
| 2026-05-07 13:02 | 50.07312 | 8.72598 | 2316 ft | 202 kts | 251° |
| 2026-05-07 13:02 | 50.06833 | 8.70577 | 2082 ft | 191 kts | 252° |
| 2026-05-07 13:02 | 50.06391 | 8.68710 | 1791 ft | 176 kts | 252° |
| 2026-05-07 13:03 | 50.05990 | 8.67024 | 1566 ft | 157 kts | 251° |
| 2026-05-07 13:03 | 50.05632 | 8.65491 | 1334 ft | 147 kts | 252° |
| 2026-05-07 13:03 | 50.05270 | 8.64028 | 1147 ft | 142 kts | 250° |
| 2026-05-07 13:03 | 50.04940 | 8.62619 | 981 ft | 137 kts | 250° |
| 2026-05-07 13:04 | 50.04622 | 8.61221 | 776 ft | 137 kts | 251° |
| 2026-05-07 13:04 | 50.04291 | 8.59855 | 586 ft | 134 kts | 248° |
| 2026-05-07 13:04 | 50.03965 | 8.58509 | 394 ft | 131 kts | 249° |
| 2026-05-07 13:04 | 50.03680 | 8.57321 | 360 ft | 100 kts | 250° |
| 2026-05-07 13:05 | 50.03503 | 8.56562 | 355 ft | 51 kts | 250° |
| 2026-05-07 13:05 | 50.03391 | 8.56091 | 354 ft | 44 kts | 250° |
| 2026-05-07 13:05 | 50.03294 | 8.55698 | 349 ft | 25 kts | 238° |
| 2026-05-07 13:05 | 50.03178 | 8.55504 | 349 ft | 24 kts | 221° |
| 2026-05-07 13:06 | 50.03140 | 8.55455 | 345 ft | 0 kts | 218° |
| 2026-05-07 13:06 | 50.03129 | 8.55442 | 350 ft | 7 kts | 213° |
| 2026-05-07 13:06 | 50.03067 | 8.55463 | 347 ft | 11 kts | 124° |
| 2026-05-07 13:06 | 50.03081 | 8.55576 | 344 ft | 12 kts | 72° |
| 2026-05-07 13:07 | 50.03117 | 8.55735 | 345 ft | 19 kts | 69° |
| 2026-05-07 13:07 | 50.03164 | 8.55931 | 354 ft | 19 kts | 69° |
| 2026-05-07 13:07 | 50.03210 | 8.56121 | 351 ft | 19 kts | 69° |
| 2026-05-07 13:07 | 50.03255 | 8.56313 | 353 ft | 19 kts | 69° |
| 2026-05-07 13:08 | 50.03302 | 8.56506 | 350 ft | 19 kts | 69° |
| 2026-05-07 13:08 | 50.03345 | 8.56686 | 350 ft | 11 kts | 69° |
| 2026-05-07 13:08 | 50.03336 | 8.56792 | 354 ft | 10 kts | 144° |
| 2026-05-07 13:08 | 50.03258 | 8.56841 | 352 ft | 14 kts | 160° |
| 2026-05-07 13:09 | 50.03155 | 8.56901 | 358 ft | 18 kts | 159° |
| 2026-05-07 13:09 | 50.03051 | 8.57011 | 356 ft | 18 kts | 114° |
| 2026-05-07 13:09 | 50.03016 | 8.57146 | 358 ft | 10 kts | 88° |
| 2026-05-07 13:09 | 50.03051 | 8.57186 | 356 ft | 3 kts | 23° |
| 2026-05-07 13:10 | 50.03064 | 8.57194 | 362 ft | 2 kts | 25° |
| 2026-05-07 13:10 | 50.03097 | 8.57218 | 360 ft | 4 kts | 25° |
| 2026-05-07 13:10 | 50.03103 | 8.57223 | 361 ft | 0 kts | 25° |